OHCAM EFHN-EFKG

Flight info

Callsign OHCAM
Flight time 0h 48m
Altitude 2000
Route VFR DCT
Aircraft C172/L-V/N

Departure

Time 2026-05-04 17:11
Airport Hanko Airfield (EFHN)

Arrival

Time 2026-05-04 17:59
Airport Kumlinge Airfield (EFKG)
Time Latitude Longitude Altitude Speed Heading
2026-05-04 16:48 59.84234 23.07864 27 ft 0 kts 105°
2026-05-04 17:02 59.84234 23.07870 26 ft 2 kts 84°
2026-05-04 17:02 59.84234 23.07864 27 ft 0 kts 105°
2026-05-04 17:04 59.84269 23.07859 27 ft 0 kts 352°
2026-05-04 17:04 59.84294 23.07846 27 ft 5 kts 346°
2026-05-04 17:05 59.84398 23.07948 27 ft 13 kts 31°
2026-05-04 17:05 59.84617 23.08240 19 ft 24 kts 31°
2026-05-04 17:06 59.84882 23.08581 24 ft 24 kts 33°
2026-05-04 17:06 59.85030 23.08782 22 ft 28 kts 33°
2026-05-04 17:07 59.85229 23.09066 19 ft 0 kts 33°
2026-05-04 17:08 59.85258 23.09098 20 ft 9 kts 26°
2026-05-04 17:08 59.85323 23.09194 22 ft 0 kts 233°
2026-05-04 17:08 59.85322 23.09193 22 ft 1 kts 233°
2026-05-04 17:10 59.85315 23.09177 21 ft 10 kts 225°
2026-05-04 17:10 59.84358 23.07939 229 ft 68 kts 230°
2026-05-04 17:11 59.84187 23.07070 363 ft 67 kts 262°
2026-05-04 17:11 59.84133 23.06153 462 ft 66 kts 268°
2026-05-04 17:11 59.84420 23.04353 732 ft 70 kts 298°
2026-05-04 17:12 59.84676 23.03523 894 ft 71 kts 300°
2026-05-04 17:12 59.85378 23.01763 1062 ft 85 kts 314°
2026-05-04 17:13 59.86736 22.99518 1508 ft 83 kts 315°
2026-05-04 17:14 59.87958 22.96992 1848 ft 87 kts 299°
2026-05-04 17:14 59.88278 22.95948 1908 ft 92 kts 300°
2026-05-04 17:14 59.89088 22.94085 1981 ft 85 kts 316°
2026-05-04 17:15 59.89532 22.93398 2005 ft 78 kts 317°
2026-05-04 17:15 59.90162 22.91907 2046 ft 70 kts 300°
2026-05-04 17:16 59.90759 22.90304 1991 ft 67 kts 303°
2026-05-04 17:16 59.91704 22.87614 2018 ft 97 kts 303°
2026-05-04 17:17 59.92111 22.86495 2023 ft 100 kts 304°
2026-05-04 17:17 59.93262 22.82954 2008 ft 105 kts 296°
2026-05-04 17:18 59.93603 22.81712 1999 ft 98 kts 296°
2026-05-04 17:18 59.94202 22.79395 1974 ft 93 kts 296°
2026-05-04 17:19 59.94860 22.77158 1931 ft 90 kts 299°
2026-05-04 17:19 59.95544 22.75043 1915 ft 92 kts 296°
2026-05-04 17:20 59.96061 22.72776 1856 ft 93 kts 296°
2026-05-04 17:20 59.96783 22.70578 1741 ft 95 kts 303°
2026-05-04 17:20 59.97144 22.69521 1743 ft 91 kts 301°
2026-05-04 17:21 59.97853 22.67567 1878 ft 80 kts 303°
2026-05-04 17:21 59.98390 22.65582 1903 ft 88 kts 293°
2026-05-04 17:22 59.98625 22.64421 1947 ft 92 kts 288°
2026-05-04 17:22 59.98819 22.63200 2005 ft 91 kts 281°
2026-05-04 17:23 59.99277 22.59399 2163 ft 91 kts 284°
2026-05-04 17:23 59.99444 22.58152 2198 ft 93 kts 281°
2026-05-04 17:23 59.99680 22.55172 1979 ft 115 kts 275°
2026-05-04 17:24 59.99787 22.53652 1910 ft 106 kts 277°
2026-05-04 17:24 60.00114 22.49654 1583 ft 96 kts 281°
2026-05-04 17:25 60.00274 22.48374 1550 ft 96 kts 280°
2026-05-04 17:25 60.00620 22.45854 1640 ft 94 kts 284°
2026-05-04 17:26 60.01069 22.43244 1873 ft 104 kts 290°
2026-05-04 17:26 60.01775 22.39447 2169 ft 92 kts 284°
2026-05-04 17:27 60.02179 22.36839 1991 ft 96 kts 286°
2026-05-04 17:27 60.02699 22.34026 1863 ft 106 kts 290°
2026-05-04 17:28 60.03305 22.31452 1683 ft 99 kts 294°
2026-05-04 17:29 60.04177 22.28100 1683 ft 92 kts 293°
2026-05-04 17:29 60.05009 22.24689 1769 ft 90 kts 291°
2026-05-04 17:30 60.05664 22.21682 1968 ft 83 kts 288°
2026-05-04 17:31 60.06102 22.19481 1983 ft 86 kts 287°
2026-05-04 17:31 60.06743 22.16065 1995 ft 88 kts 285°
2026-05-04 17:32 60.07157 22.13745 2005 ft 89 kts 285°
2026-05-04 17:33 60.07754 22.10271 2001 ft 88 kts 285°
2026-05-04 17:33 60.07947 22.09108 2003 ft 88 kts 284°
2026-05-04 17:34 60.08502 22.05636 1993 ft 87 kts 283°
2026-05-04 17:34 60.08677 22.04489 1996 ft 86 kts 283°
2026-05-04 17:35 60.09170 22.01079 1989 ft 84 kts 282°
2026-05-04 17:35 60.09474 21.98821 1993 ft 84 kts 281°
2026-05-04 17:35 60.09619 21.97682 1990 ft 85 kts 280°
2026-05-04 17:36 60.09760 21.96534 1989 ft 85 kts 280°
2026-05-04 17:36 60.09898 21.95383 1997 ft 85 kts 279°
2026-05-04 17:36 60.10032 21.94230 1999 ft 85 kts 279°
2026-05-04 17:36 60.10162 21.93074 1997 ft 85 kts 279°
2026-05-04 17:37 60.10288 21.91917 1997 ft 85 kts 279°
2026-05-04 17:37 60.10410 21.90759 2001 ft 85 kts 278°
2026-05-04 17:37 60.10529 21.89601 1994 ft 85 kts 278°
2026-05-04 17:37 60.10643 21.88448 1998 ft 85 kts 278°
2026-05-04 17:38 60.10754 21.87290 1997 ft 85 kts 278°
2026-05-04 17:38 60.10861 21.86130 2001 ft 84 kts 277°
2026-05-04 17:38 60.10965 21.84966 1997 ft 85 kts 277°
2026-05-04 17:38 60.11065 21.83806 1996 ft 85 kts 277°
2026-05-04 17:39 60.11257 21.81472 2001 ft 85 kts 276°
2026-05-04 17:39 60.11349 21.80290 1995 ft 86 kts 276°
2026-05-04 17:39 60.11439 21.79100 1996 ft 87 kts 276°
2026-05-04 17:40 60.11527 21.77902 1997 ft 88 kts 276°
2026-05-04 17:40 60.11614 21.76691 1997 ft 87 kts 276°
2026-05-04 17:40 60.11789 21.75543 2001 ft 89 kts 296°
2026-05-04 17:40 60.12143 21.74504 1998 ft 90 kts 297°
2026-05-04 17:41 60.12486 21.73494 1994 ft 88 kts 298°
2026-05-04 17:41 60.12829 21.72480 1997 ft 88 kts 298°
2026-05-04 17:41 60.13175 21.71457 1995 ft 89 kts 298°
2026-05-04 17:41 60.13523 21.70438 1990 ft 89 kts 298°
2026-05-04 17:42 60.13870 21.69423 1992 ft 88 kts 298°
2026-05-04 17:42 60.14218 21.68396 1999 ft 94 kts 297°
2026-05-04 17:42 60.14605 21.67210 1995 ft 105 kts 298°
2026-05-04 17:42 60.14996 21.66034 1995 ft 98 kts 298°
2026-05-04 17:43 60.15374 21.64903 1995 ft 96 kts 298°
2026-05-04 17:43 60.15742 21.63799 1994 ft 94 kts 298°
2026-05-04 17:43 60.16104 21.62715 1990 ft 93 kts 298°
2026-05-04 17:43 60.16446 21.61621 1985 ft 91 kts 294°
2026-05-04 17:44 60.16757 21.60505 1978 ft 91 kts 294°
2026-05-04 17:44 60.17065 21.59404 1980 ft 90 kts 294°
2026-05-04 17:44 60.17366 21.58315 1979 ft 88 kts 290°
2026-05-04 17:44 60.17593 21.57188 1977 ft 86 kts 287°
2026-05-04 17:45 60.17812 21.56080 1974 ft 85 kts 287°
2026-05-04 17:45 60.18028 21.54990 1977 ft 84 kts 287°
2026-05-04 17:45 60.18244 21.53900 1974 ft 84 kts 287°
2026-05-04 17:45 60.18461 21.52808 1974 ft 84 kts 287°
2026-05-04 17:46 60.18676 21.51724 1977 ft 83 kts 287°
2026-05-04 17:46 60.18890 21.50641 1980 ft 83 kts 287°
2026-05-04 17:46 60.19105 21.49556 1983 ft 84 kts 287°
2026-05-04 17:46 60.19323 21.48470 1984 ft 84 kts 287°
2026-05-04 17:47 60.19545 21.47376 1987 ft 85 kts 287°
2026-05-04 17:47 60.19767 21.46283 1991 ft 84 kts 287°
2026-05-04 17:47 60.19991 21.45191 1990 ft 85 kts 287°
2026-05-04 17:47 60.20217 21.44090 1994 ft 86 kts 287°
2026-05-04 17:48 60.20370 21.42948 1991 ft 86 kts 277°
2026-05-04 17:48 60.20492 21.41650 2004 ft 100 kts 278°
2026-05-04 17:48 60.20619 21.40210 2004 ft 107 kts 278°
2026-05-04 17:48 60.20749 21.38710 2001 ft 109 kts 278°
2026-05-04 17:49 60.20884 21.37210 1998 ft 109 kts 278°
2026-05-04 17:49 60.21017 21.35710 1997 ft 109 kts 278°
2026-05-04 17:49 60.21151 21.34211 1998 ft 109 kts 278°
2026-05-04 17:49 60.21288 21.32702 1997 ft 110 kts 278°
2026-05-04 17:50 60.21430 21.31180 1991 ft 111 kts 278°
2026-05-04 17:50 60.21565 21.29652 1994 ft 111 kts 277°
2026-05-04 17:50 60.21700 21.28141 1995 ft 111 kts 278°
2026-05-04 17:50 60.21840 21.26620 1994 ft 110 kts 278°
2026-05-04 17:51 60.21980 21.25101 1989 ft 111 kts 278°
2026-05-04 17:51 60.22116 21.23578 1995 ft 110 kts 278°
2026-05-04 17:51 60.22250 21.22057 1994 ft 111 kts 278°
2026-05-04 17:51 60.22387 21.20551 1993 ft 112 kts 278°
2026-05-04 17:52 60.22478 21.19526 1992 ft 112 kts 278°
2026-05-04 17:52 60.22614 21.17986 1994 ft 112 kts 277°
2026-05-04 17:52 60.22754 21.16436 1990 ft 112 kts 278°
2026-05-04 17:52 60.22892 21.14901 1991 ft 111 kts 278°
2026-05-04 17:53 60.23026 21.13381 1989 ft 110 kts 278°
2026-05-04 17:53 60.23133 21.11918 1421 ft 92 kts 284°
2026-05-04 17:53 60.23897 21.10655 1083 ft 134 kts 315°
2026-05-04 17:53 60.24444 21.09261 1000 ft 125 kts 285°
2026-05-04 17:54 60.24598 21.07775 1239 ft 107 kts 274°
2026-05-04 17:54 60.24654 21.06244 1259 ft 108 kts 271°
2026-05-04 17:54 60.24645 21.04736 1383 ft 102 kts 258°
2026-05-04 17:54 60.24400 21.03367 1278 ft 116 kts 248°
2026-05-04 17:55 60.24150 21.01795 1146 ft 116 kts 256°
2026-05-04 17:55 60.24090 21.00251 1133 ft 115 kts 268°
2026-05-04 17:55 60.24099 20.98705 1165 ft 113 kts 270°
2026-05-04 17:55 60.24153 20.97072 1029 ft 121 kts 271°
2026-05-04 17:56 60.24248 20.95260 704 ft 134 kts 277°
2026-05-04 17:56 60.24423 20.93400 442 ft 139 kts 277°
2026-05-04 17:56 60.24648 20.91498 299 ft 135 kts 282°
2026-05-04 17:56 60.24773 20.89734 395 ft 120 kts 268°
2026-05-04 17:57 60.24767 20.88056 450 ft 119 kts 265°
2026-05-04 17:57 60.24753 20.86379 480 ft 119 kts 264°
2026-05-04 17:57 60.24715 20.84699 496 ft 120 kts 259°
2026-05-04 17:57 60.24597 20.83081 598 ft 116 kts 261°
2026-05-04 17:58 60.24450 20.81517 567 ft 101 kts 253°
2026-05-04 17:58 60.24347 20.80413 518 ft 83 kts 257°
2026-05-04 17:58 60.24020 20.79636 385 ft 76 kts 202°
2026-05-04 17:58 60.23516 20.79938 334 ft 85 kts 133°
2026-05-04 17:59 60.23739 20.81062 257 ft 110 kts 23°
2026-05-04 17:59 60.24316 20.80621 29 ft 91 kts 332°
2026-05-04 17:59 60.24734 20.80035 8 ft 6 kts 160°
2026-05-04 18:00 60.24728 20.80039 9 ft 0 kts 165°